sensor_id;sensor_type;location;lat;lon;timestamp;pressure;altitude;pressure_sealevel;temperature;humidity
54194;BME280;40102;50.906;6.972;2022-10-16T00:01:12;100562.13;;;14.71;88.09
54194;BME280;40102;50.906;6.972;2022-10-16T00:03:39;100562.88;;;14.73;87.68
54194;BME280;40102;50.906;6.972;2022-10-16T00:06:06;100568.88;;;14.77;87.37
54194;BME280;40102;50.906;6.972;2022-10-16T00:08:32;100566.66;;;14.71;87.11
54194;BME280;40102;50.906;6.972;2022-10-16T00:11:00;100580.88;;;14.73;87.36
54194;BME280;40102;50.906;6.972;2022-10-16T00:13:25;100563.22;;;14.69;86.86
54194;BME280;40102;50.906;6.972;2022-10-16T00:15:55;100574.50;;;14.74;87.05
54194;BME280;40102;50.906;6.972;2022-10-16T00:18:21;100565.16;;;14.67;86.96
54194;BME280;40102;50.906;6.972;2022-10-16T00:20:47;100559.78;;;14.67;87.11
54194;BME280;40102;50.906;6.972;2022-10-16T00:23:12;100560.88;;;14.64;86.55
54194;BME280;40102;50.906;6.972;2022-10-16T00:25:38;100571.66;;;14.64;86.82
54194;BME280;40102;50.906;6.972;2022-10-16T00:28:03;100584.75;;;14.69;86.62
54194;BME280;40102;50.906;6.972;2022-10-16T00:30:29;100584.75;;;14.69;86.61
54194;BME280;40102;50.906;6.972;2022-10-16T00:32:56;100571.28;;;14.69;86.55
54194;BME280;40102;50.906;6.972;2022-10-16T00:35:21;100571.28;;;14.69;86.32
54194;BME280;40102;50.906;6.972;2022-10-16T00:37:47;100571.19;;;14.70;86.14
54194;BME280;40102;50.906;6.972;2022-10-16T00:40:12;100559.16;;;14.63;85.88
54194;BME280;40102;50.906;6.972;2022-10-16T00:42:38;100553.03;;;14.61;86.52
54194;BME280;40102;50.906;6.972;2022-10-16T00:45:05;100560.75;;;14.66;85.92
54194;BME280;40102;50.906;6.972;2022-10-16T00:47:34;100570.91;;;14.62;86.42
54194;BME280;40102;50.906;6.972;2022-10-16T00:50:14;100564.44;;;14.65;86.23
54194;BME280;40102;50.906;6.972;2022-10-16T00:52:46;100566.84;;;14.56;86.13
54194;BME280;40102;50.906;6.972;2022-10-16T00:55:14;100571.25;;;14.57;86.05
54194;BME280;40102;50.906;6.972;2022-10-16T00:57:41;100564.88;;;14.58;86.05
54194;BME280;40102;50.906;6.972;2022-10-16T01:00:10;100560.34;;;14.59;85.74
54194;BME280;40102;50.906;6.972;2022-10-16T01:02:36;100567.34;;;14.62;86.39
54194;BME280;40102;50.906;6.972;2022-10-16T01:05:02;100566.50;;;14.61;86.37
54194;BME280;40102;50.906;6.972;2022-10-16T01:07:37;100570.91;;;14.62;86.27
54194;BME280;40102;50.906;6.972;2022-10-16T01:10:44;100573.81;;;14.59;86.21
54194;BME280;40102;50.906;6.972;2022-10-16T01:13:25;100563.91;;;14.60;86.02
54194;BME280;40102;50.906;6.972;2022-10-16T01:15:58;100561.44;;;14.56;85.64
54194;BME280;40102;50.906;6.972;2022-10-16T01:18:33;100574.03;;;14.56;86.00
54194;BME280;40102;50.906;6.972;2022-10-16T01:21:04;100576.41;;;14.61;86.09
54194;BME280;40102;50.906;6.972;2022-10-16T01:26:24;100589.34;;;14.55;85.85
54194;BME280;40102;50.906;6.972;2022-10-16T01:28:59;100586.00;;;14.52;85.75
54194;BME280;40102;50.906;6.972;2022-10-16T01:31:36;100574.38;;;14.51;85.32
54194;BME280;40102;50.906;6.972;2022-10-16T01:34:18;100577.09;;;14.51;85.67
54194;BME280;40102;50.906;6.972;2022-10-16T01:36:48;100588.38;;;14.56;85.55
54194;BME280;40102;50.906;6.972;2022-10-16T01:39:19;100575.34;;;14.50;85.77
54194;BME280;40102;50.906;6.972;2022-10-16T01:41:51;100580.00;;;14.48;85.83
54194;BME280;40102;50.906;6.972;2022-10-16T01:44:24;100597.75;;;14.51;85.70
54194;BME280;40102;50.906;6.972;2022-10-16T01:46:52;100583.03;;;14.44;86.08
54194;BME280;40102;50.906;6.972;2022-10-16T01:49:21;100590.03;;;14.46;86.17
54194;BME280;40102;50.906;6.972;2022-10-16T01:51:52;100581.94;;;14.46;86.00
54194;BME280;40102;50.906;6.972;2022-10-16T01:54:20;100586.78;;;14.41;85.99
54194;BME280;40102;50.906;6.972;2022-10-16T01:56:49;100590.53;;;14.39;86.35
54194;BME280;40102;50.906;6.972;2022-10-16T01:59:19;100591.41;;;14.39;86.22
54194;BME280;40102;50.906;6.972;2022-10-16T02:01:49;100588.06;;;14.48;86.12
54194;BME280;40102;50.906;6.972;2022-10-16T02:04:27;100598.84;;;14.48;85.82
54194;BME280;40102;50.906;6.972;2022-10-16T02:06:55;100593.56;;;14.47;85.97
54194;BME280;40102;50.906;6.972;2022-10-16T02:09:21;100596.78;;;14.52;85.87
54194;BME280;40102;50.906;6.972;2022-10-16T02:11:47;100594.44;;;14.47;85.69
54194;BME280;40102;50.906;6.972;2022-10-16T02:14:15;100603.47;;;14.46;85.44
54194;BME280;40102;50.906;6.972;2022-10-16T02:16:45;100611.22;;;14.51;85.69
54194;BME280;40102;50.906;6.972;2022-10-16T02:19:17;100613.91;;;14.51;85.20
54194;BME280;40102;50.906;6.972;2022-10-16T02:21:56;100610.13;;;14.53;84.79
54194;BME280;40102;50.906;6.972;2022-10-16T02:27:25;100610.97;;;14.54;84.81
54194;BME280;40102;50.906;6.972;2022-10-16T02:29:57;100592.72;;;14.46;84.58
54194;BME280;40102;50.906;6.972;2022-10-16T02:32:29;100594.19;;;14.50;84.41
54194;BME280;40102;50.906;6.972;2022-10-16T02:34:56;100592.72;;;14.46;84.08
54194;BME280;40102;50.906;6.972;2022-10-16T02:37:25;100590.25;;;14.43;83.95
54194;BME280;40102;50.906;6.972;2022-10-16T02:39:51;100613.38;;;14.46;83.99
54194;BME280;40102;50.906;6.972;2022-10-16T02:42:18;100605.94;;;14.37;84.16
54194;BME280;40102;50.906;6.972;2022-10-16T02:44:43;100623.69;;;14.39;84.01
54194;BME280;40102;50.906;6.972;2022-10-16T02:47:09;100603.25;;;14.37;84.55
54194;BME280;40102;50.906;6.972;2022-10-16T02:49:35;100591.53;;;14.38;84.33
54194;BME280;40102;50.906;6.972;2022-10-16T02:52:00;100604.88;;;14.39;84.29
54194;BME280;40102;50.906;6.972;2022-10-16T02:54:26;100604.75;;;14.41;83.97
54194;BME280;40102;50.906;6.972;2022-10-16T02:56:51;100613.69;;;14.41;83.97
54194;BME280;40102;50.906;6.972;2022-10-16T02:59:17;100622.19;;;14.48;84.20
54194;BME280;40102;50.906;6.972;2022-10-16T03:01:42;100623.28;;;14.45;83.93
54194;BME280;40102;50.906;6.972;2022-10-16T03:04:08;100612.63;;;14.44;83.13
54194;BME280;40102;50.906;6.972;2022-10-16T03:06:34;100618.53;;;14.49;82.83
54194;BME280;40102;50.906;6.972;2022-10-16T03:08:59;100613.69;;;14.41;82.67
54194;BME280;40102;50.906;6.972;2022-10-16T03:11:25;100603.47;;;14.34;82.92
54194;BME280;40102;50.906;6.972;2022-10-16T03:13:51;100593.91;;;14.30;83.05
54194;BME280;40102;50.906;6.972;2022-10-16T03:16:17;100604.44;;;14.33;83.05
54194;BME280;40102;50.906;6.972;2022-10-16T03:18:42;100601.13;;;14.29;83.33
54194;BME280;40102;50.906;6.972;2022-10-16T03:21:08;100591.03;;;14.20;84.09
54194;BME280;40102;50.906;6.972;2022-10-16T03:23:34;100577.69;;;14.18;84.09
54194;BME280;40102;50.906;6.972;2022-10-16T03:25:59;100586.09;;;14.14;84.08
54194;BME280;40102;50.906;6.972;2022-10-16T03:28:25;100599.44;;;14.15;84.30
54194;BME280;40102;50.906;6.972;2022-10-16T03:30:51;100604.81;;;14.15;84.45
54194;BME280;40102;50.906;6.972;2022-10-16T03:33:16;100615.78;;;14.25;83.87
54194;BME280;40102;50.906;6.972;2022-10-16T03:35:42;100591.78;;;14.22;84.05
54194;BME280;40102;50.906;6.972;2022-10-16T03:38:08;100588.97;;;14.23;83.27
54194;BME280;40102;50.906;6.972;2022-10-16T03:40:34;100598.13;;;14.21;83.62
54194;BME280;40102;50.906;6.972;2022-10-16T03:42:59;100603.28;;;14.24;84.01
54194;BME280;40102;50.906;6.972;2022-10-16T03:45:25;100601.34;;;14.26;83.76
54194;BME280;40102;50.906;6.972;2022-10-16T03:47:52;100602.97;;;14.29;83.63
54194;BME280;40102;50.906;6.972;2022-10-16T03:50:18;100607.94;;;14.22;83.73
54194;BME280;40102;50.906;6.972;2022-10-16T03:52:44;100597.91;;;14.24;84.12
54194;BME280;40102;50.906;6.972;2022-10-16T03:55:09;100619.22;;;14.27;84.13
54194;BME280;40102;50.906;6.972;2022-10-16T03:57:34;100612.34;;;14.23;83.81
54194;BME280;40102;50.906;6.972;2022-10-16T04:00:00;100639.97;;;14.25;84.19
54194;BME280;40102;50.906;6.972;2022-10-16T04:02:26;100643.53;;;14.25;84.16
54194;BME280;40102;50.906;6.972;2022-10-16T04:04:52;100669.13;;;14.31;84.47
54194;BME280;40102;50.906;6.972;2022-10-16T04:07:18;100646.09;;;14.27;84.01
54194;BME280;40102;50.906;6.972;2022-10-16T04:09:44;100640.72;;;14.27;83.81
54194;BME280;40102;50.906;6.972;2022-10-16T04:12:10;100633.75;;;14.24;84.20
54194;BME280;40102;50.906;6.972;2022-10-16T04:14:35;100628.59;;;14.21;84.28
54194;BME280;40102;50.906;6.972;2022-10-16T04:17:01;100622.97;;;14.24;84.55
54194;BME280;40102;50.906;6.972;2022-10-16T04:19:27;100634.28;;;14.30;84.40
54194;BME280;40102;50.906;6.972;2022-10-16T04:21:52;100647.72;;;14.30;85.12
54194;BME280;40102;50.906;6.972;2022-10-16T04:24:18;100649.88;;;14.24;84.95
54194;BME280;40102;50.906;6.972;2022-10-16T04:26:44;100656.13;;;14.25;84.99
54194;BME280;40102;50.906;6.972;2022-10-16T04:29:13;100649.66;;;14.27;84.98
54194;BME280;40102;50.906;6.972;2022-10-16T04:31:39;100642.66;;;14.25;85.23
54194;BME280;40102;50.906;6.972;2022-10-16T04:34:05;100648.69;;;14.29;85.12
54194;BME280;40102;50.906;6.972;2022-10-16T04:36:31;100659.22;;;14.32;85.23
54194;BME280;40102;50.906;6.972;2022-10-16T04:38:59;100660.53;;;14.26;85.33
54194;BME280;40102;50.906;6.972;2022-10-16T04:41:25;100662.47;;;14.24;85.75
54194;BME280;40102;50.906;6.972;2022-10-16T04:43:50;100668.81;;;14.23;86.31
54194;BME280;40102;50.906;6.972;2022-10-16T04:46:15;100662.25;;;14.27;85.63
54194;BME280;40102;50.906;6.972;2022-10-16T04:48:44;100655.91;;;14.28;85.81
54194;BME280;40102;50.906;6.972;2022-10-16T04:51:10;100665.81;;;14.27;86.02
54194;BME280;40102;50.906;6.972;2022-10-16T04:53:36;100669.56;;;14.25;85.87
54194;BME280;40102;50.906;6.972;2022-10-16T04:56:02;100664.19;;;14.25;86.12
54194;BME280;40102;50.906;6.972;2022-10-16T04:58:27;100665.91;;;14.26;86.10
54194;BME280;40102;50.906;6.972;2022-10-16T05:00:53;100667.84;;;14.24;86.17
54194;BME280;40102;50.906;6.972;2022-10-16T05:03:19;100673.22;;;14.24;86.05
54194;BME280;40102;50.906;6.972;2022-10-16T05:05:45;100682.81;;;14.28;86.25
54194;BME280;40102;50.906;6.972;2022-10-16T05:08:14;100677.13;;;14.20;86.33
54194;BME280;40102;50.906;6.972;2022-10-16T05:10:44;100678.84;;;14.21;86.09
54194;BME280;40102;50.906;6.972;2022-10-16T05:13:11;100676.66;;;14.26;86.41
54194;BME280;40102;50.906;6.972;2022-10-16T05:15:37;100677.53;;;14.26;86.27
54194;BME280;40102;50.906;6.972;2022-10-16T05:18:03;100690.88;;;14.28;86.25
54194;BME280;40102;50.906;6.972;2022-10-16T05:20:28;100697.75;;;14.32;86.57
54194;BME280;40102;50.906;6.972;2022-10-16T05:22:57;100699.06;;;14.26;86.49
54194;BME280;40102;50.906;6.972;2022-10-16T05:25:23;100696.38;;;14.26;86.47
54194;BME280;40102;50.906;6.972;2022-10-16T05:27:49;100692.38;;;14.32;86.48
54194;BME280;40102;50.906;6.972;2022-10-16T05:30:16;100678.28;;;14.29;86.37
54194;BME280;40102;50.906;6.972;2022-10-16T05:32:46;100695.41;;;14.27;86.40
54194;BME280;40102;50.906;6.972;2022-10-16T05:35:12;100712.19;;;14.31;86.82
54194;BME280;40102;50.906;6.972;2022-10-16T05:37:38;100705.19;;;14.29;86.72
54194;BME280;40102;50.906;6.972;2022-10-16T05:40:04;100699.06;;;14.26;87.07
54194;BME280;40102;50.906;6.972;2022-10-16T05:42:30;100707.25;;;14.25;86.98
54194;BME280;40102;50.906;6.972;2022-10-16T05:44:56;100711.53;;;14.27;87.08
54194;BME280;40102;50.906;6.972;2022-10-16T05:47:22;100701.41;;;14.31;87.10
54194;BME280;40102;50.906;6.972;2022-10-16T05:49:48;100692.59;;;14.29;86.93
54194;BME280;40102;50.906;6.972;2022-10-16T05:52:14;100710.03;;;14.36;87.01
54194;BME280;40102;50.906;6.972;2022-10-16T05:54:40;100708.75;;;14.29;86.91
54194;BME280;40102;50.906;6.972;2022-10-16T05:57:05;100733.59;;;14.33;87.15
54194;BME280;40102;50.906;6.972;2022-10-16T05:59:31;100737.16;;;14.33;87.68
54194;BME280;40102;50.906;6.972;2022-10-16T06:01:57;100742.19;;;14.38;87.54
54194;BME280;40102;50.906;6.972;2022-10-16T06:04:23;100744.25;;;14.34;87.38
54194;BME280;40102;50.906;6.972;2022-10-16T06:06:48;100751.78;;;14.29;87.50
54194;BME280;40102;50.906;6.972;2022-10-16T06:09:14;100751.56;;;14.19;87.97
54194;BME280;40102;50.906;6.972;2022-10-16T06:11:40;100754.78;;;14.12;88.24
54194;BME280;40102;50.906;6.972;2022-10-16T06:14:06;100758.03;;;14.04;89.16
54194;BME280;40102;50.906;6.972;2022-10-16T06:16:35;100775.56;;;14.10;89.70
54194;BME280;40102;50.906;6.972;2022-10-16T06:19:02;100779.75;;;14.14;89.70
54194;BME280;40102;50.906;6.972;2022-10-16T06:21:29;100776.09;;;14.15;89.14
54194;BME280;40102;50.906;6.972;2022-10-16T06:23:56;100769.88;;;14.14;89.27
54194;BME280;40102;50.906;6.972;2022-10-16T06:26:25;100759.97;;;14.15;88.77
54194;BME280;40102;50.906;6.972;2022-10-16T06:28:51;100756.09;;;14.19;88.88
54194;BME280;40102;50.906;6.972;2022-10-16T06:31:18;100766.31;;;14.14;88.56
54194;BME280;40102;50.906;6.972;2022-10-16T06:33:44;100749.41;;;14.12;89.03
54194;BME280;40102;50.906;6.972;2022-10-16T06:36:13;100768.03;;;14.15;88.87
54194;BME280;40102;50.906;6.972;2022-10-16T06:38:40;100787.41;;;14.20;88.92
54194;BME280;40102;50.906;6.972;2022-10-16T06:41:06;100795.47;;;14.20;88.62
54194;BME280;40102;50.906;6.972;2022-10-16T06:43:33;100801.28;;;14.26;88.62
54194;BME280;40102;50.906;6.972;2022-10-16T06:46:01;100795.16;;;14.24;88.57
54194;BME280;40102;50.906;6.972;2022-10-16T06:48:28;100806.13;;;14.34;88.74
54194;BME280;40102;50.906;6.972;2022-10-16T06:50:58;100800.31;;;14.27;88.84
54194;BME280;40102;50.906;6.972;2022-10-16T06:53:24;100819.59;;;14.34;88.64
54194;BME280;40102;50.906;6.972;2022-10-16T06:55:50;100807.22;;;14.32;88.91
54194;BME280;40102;50.906;6.972;2022-10-16T06:58:16;100816.16;;;14.32;89.26
54194;BME280;40102;50.906;6.972;2022-10-16T07:00:41;100823.25;;;14.33;88.91
54194;BME280;40102;50.906;6.972;2022-10-16T07:03:07;100830.78;;;14.41;89.06
54194;BME280;40102;50.906;6.972;2022-10-16T07:05:41;100817.44;;;14.39;88.95
54194;BME280;40102;50.906;6.972;2022-10-16T07:08:06;100837.59;;;14.46;88.66
54194;BME280;40102;50.906;6.972;2022-10-16T07:10:33;100827.06;;;14.43;89.09
54194;BME280;40102;50.906;6.972;2022-10-16T07:12:59;100833.09;;;14.47;88.57
54194;BME280;40102;50.906;6.972;2022-10-16T07:15:25;100832.22;;;14.46;88.64
54194;BME280;40102;50.906;6.972;2022-10-16T07:17:51;100839.53;;;14.44;88.62
54194;BME280;40102;50.906;6.972;2022-10-16T07:20:16;100848.03;;;14.51;88.75
54194;BME280;40102;50.906;6.972;2022-10-16T07:22:42;100868.50;;;14.53;88.93
54194;BME280;40102;50.906;6.972;2022-10-16T07:25:08;100861.06;;;14.44;88.84
54194;BME280;40102;50.906;6.972;2022-10-16T07:27:34;100874.31;;;14.47;89.01
54194;BME280;40102;50.906;6.972;2022-10-16T07:29:59;100869.03;;;14.46;88.90
54194;BME280;40102;50.906;6.972;2022-10-16T07:32:25;100873.13;;;14.51;88.65
54194;BME280;40102;50.906;6.972;2022-10-16T07:34:52;100877.44;;;14.54;88.66
54194;BME280;40102;50.906;6.972;2022-10-16T07:37:18;100866.56;;;14.55;88.61
54194;BME280;40102;50.906;6.972;2022-10-16T07:39:44;100868.19;;;14.58;88.67
54194;BME280;40102;50.906;6.972;2022-10-16T07:42:09;100889.41;;;14.63;88.74
54194;BME280;40102;50.906;6.972;2022-10-16T07:44:35;100890.69;;;14.57;89.07
54194;BME280;40102;50.906;6.972;2022-10-16T07:47:00;100889.72;;;14.58;88.57
54194;BME280;40102;50.906;6.972;2022-10-16T07:49:27;100891.13;;;14.64;88.69
54194;BME280;40102;50.906;6.972;2022-10-16T07:51:53;100903.81;;;14.62;88.69
54194;BME280;40102;50.906;6.972;2022-10-16T07:54:18;100910.72;;;14.66;88.45
54194;BME280;40102;50.906;6.972;2022-10-16T07:56:44;100908.78;;;14.68;88.72
54194;BME280;40102;50.906;6.972;2022-10-16T07:59:09;100922.25;;;14.68;89.15
54194;BME280;40102;50.906;6.972;2022-10-16T08:01:35;100913.50;;;14.64;88.92
54194;BME280;40102;50.906;6.972;2022-10-16T08:04:00;100920.41;;;14.68;88.79
54194;BME280;40102;50.906;6.972;2022-10-16T08:06:26;100928.16;;;14.73;88.49
54194;BME280;40102;50.906;6.972;2022-10-16T08:08:51;100919.56;;;14.68;88.49
54194;BME280;40102;50.906;6.972;2022-10-16T08:11:16;100933.34;;;14.76;88.41
54194;BME280;40102;50.906;6.972;2022-10-16T08:13:42;100929.13;;;14.72;88.47
54194;BME280;40102;50.906;6.972;2022-10-16T08:16:08;100943.13;;;14.77;88.76
54194;BME280;40102;50.906;6.972;2022-10-16T08:18:35;100931.63;;;14.75;88.05
54194;BME280;40102;50.906;6.972;2022-10-16T08:21:01;100944.00;;;14.77;87.78
54194;BME280;40102;50.906;6.972;2022-10-16T08:23:27;100942.72;;;14.83;87.61
54194;BME280;40102;50.906;6.972;2022-10-16T08:25:53;100943.56;;;14.83;86.89
54194;BME280;40102;50.906;6.972;2022-10-16T08:28:19;100943.47;;;14.85;86.62
54194;BME280;40102;50.906;6.972;2022-10-16T08:30:44;100950.38;;;14.89;86.50
54194;BME280;40102;50.906;6.972;2022-10-16T08:33:10;100949.81;;;14.97;86.05
54194;BME280;40102;50.906;6.972;2022-10-16T08:35:35;100956.28;;;14.94;85.04
54194;BME280;40102;50.906;6.972;2022-10-16T08:38:03;100962.00;;;15.02;84.57
54194;BME280;40102;50.906;6.972;2022-10-16T08:40:31;100971.69;;;15.05;83.85
54194;BME280;40102;50.906;6.972;2022-10-16T08:48:51;100975.91;;;15.09;83.94
54194;BME280;40102;50.906;6.972;2022-10-16T08:51:32;100965.34;;;15.06;83.06
54194;BME280;40102;50.906;6.972;2022-10-16T08:54:06;100977.72;;;15.08;83.55
54194;BME280;40102;50.906;6.972;2022-10-16T08:56:36;100984.19;;;15.18;82.09
54194;BME280;40102;50.906;6.972;2022-10-16T08:59:01;100972.66;;;15.16;81.57
54194;BME280;40102;50.906;6.972;2022-10-16T09:01:42;100970.84;;;15.17;82.14
54194;BME280;40102;50.906;6.972;2022-10-16T09:14:38;100994.97;;;15.31;80.47
54194;BME280;40102;50.906;6.972;2022-10-16T09:20:18;100988.59;;;15.32;80.53
54194;BME280;40102;50.906;6.972;2022-10-16T09:22:40;100986.03;;;15.31;80.33
54194;BME280;40102;50.906;6.972;2022-10-16T09:25:17;100991.41;;;15.31;80.34
54194;BME280;40102;50.906;6.972;2022-10-16T09:27:47;101003.59;;;15.36;80.93
54194;BME280;40102;50.906;6.972;2022-10-16T09:30:16;100990.34;;;15.33;81.15
54194;BME280;40102;50.906;6.972;2022-10-16T09:32:43;100992.69;;;15.38;80.66
54194;BME280;40102;50.906;6.972;2022-10-16T09:35:14;100985.38;;;15.40;80.50
54194;BME280;40102;50.906;6.972;2022-10-16T09:37:42;100994.63;;;15.48;80.09
54194;BME280;40102;50.906;6.972;2022-10-16T09:40:12;100985.34;;;15.52;79.82
54194;BME280;40102;50.906;6.972;2022-10-16T09:42:38;101006.50;;;15.59;79.82
54194;BME280;40102;50.906;6.972;2022-10-16T09:45:04;101000.53;;;15.66;79.71
54194;BME280;40102;50.906;6.972;2022-10-16T09:47:31;101001.59;;;15.64;79.66
54194;BME280;40102;50.906;6.972;2022-10-16T09:50:05;100995.63;;;15.60;78.27
54194;BME280;40102;50.906;6.972;2022-10-16T09:52:44;100996.03;;;15.54;77.80
54194;BME280;40102;50.906;6.972;2022-10-16T09:55:16;101007.97;;;15.63;76.61
54194;BME280;40102;50.906;6.972;2022-10-16T09:57:54;101016.19;;;15.61;75.15
54194;BME280;40102;50.906;6.972;2022-10-16T10:00:22;101019.63;;;15.63;75.06
54194;BME280;40102;50.906;6.972;2022-10-16T10:02:49;101011.41;;;15.65;75.48
54194;BME280;40102;50.906;6.972;2022-10-16T10:05:20;100999.66;;;15.66;75.16
54194;BME280;40102;50.906;6.972;2022-10-16T10:07:57;101001.59;;;15.76;74.89
54194;BME280;40102;50.906;6.972;2022-10-16T10:10:26;100995.00;;;15.80;74.12
54194;BME280;40102;50.906;6.972;2022-10-16T10:12:52;100989.38;;;15.83;73.64
54194;BME280;40102;50.906;6.972;2022-10-16T10:15:18;100994.66;;;15.85;73.73
54194;BME280;40102;50.906;6.972;2022-10-16T10:17:54;100988.69;;;15.93;72.42
54194;BME280;40102;50.906;6.972;2022-10-16T10:20:35;100980.38;;;15.96;71.54
54194;BME280;40102;50.906;6.972;2022-10-16T10:23:25;100978.19;;;16.01;70.62
54194;BME280;40102;50.906;6.972;2022-10-16T10:25:56;100983.03;;;16.08;70.79
54194;BME280;40102;50.906;6.972;2022-10-16T10:28:58;100979.47;;;16.08;71.27
54194;BME280;40102;50.906;6.972;2022-10-16T10:31:36;100991.13;;;16.08;69.61
54194;BME280;40102;50.906;6.972;2022-10-16T10:36:39;100996.63;;;16.07;69.98
54194;BME280;40102;50.906;6.972;2022-10-16T10:39:35;101003.75;;;16.08;70.40
54194;BME280;40102;50.906;6.972;2022-10-16T10:42:25;101008.75;;;16.01;70.88
54194;BME280;40102;50.906;6.972;2022-10-16T10:45:17;101009.66;;;16.13;70.36
54194;BME280;40102;50.906;6.972;2022-10-16T10:50:56;101000.88;;;16.22;68.40
54194;BME280;40102;50.906;6.972;2022-10-16T10:54:05;101002.44;;;16.37;68.93
54194;BME280;40102;50.906;6.972;2022-10-16T10:56:42;101008.16;;;16.57;69.28
54194;BME280;40102;50.906;6.972;2022-10-16T11:02:00;100995.06;;;16.63;68.34
54194;BME280;40102;50.906;6.972;2022-10-16T11:07:36;100990.44;;;16.65;67.80
54194;BME280;40102;50.906;6.972;2022-10-16T11:10:24;100993.28;;;16.75;67.40
54194;BME280;40102;50.906;6.972;2022-10-16T11:12:55;101007.34;;;16.91;65.94
54194;BME280;40102;50.906;6.972;2022-10-16T11:15:30;101010.53;;;16.96;66.17
54194;BME280;40102;50.906;6.972;2022-10-16T11:18:16;101012.25;;;16.97;64.98
54194;BME280;40102;50.906;6.972;2022-10-16T11:20:51;101002.78;;;16.92;64.98
54194;BME280;40102;50.906;6.972;2022-10-16T11:23:26;101000.59;;;16.97;64.93
54194;BME280;40102;50.906;6.972;2022-10-16T11:25:54;101016.34;;;17.14;65.80
54194;BME280;40102;50.906;6.972;2022-10-16T11:28:35;101019.56;;;17.30;64.19
54194;BME280;40102;50.906;6.972;2022-10-16T11:34:21;101021.78;;;17.59;63.92
54194;BME280;40102;50.906;6.972;2022-10-16T11:36:58;101022.19;;;17.76;63.78
54194;BME280;40102;50.906;6.972;2022-10-16T11:39:27;101020.34;;;17.88;62.59
54194;BME280;40102;50.906;6.972;2022-10-16T11:41:55;101012.09;;;17.90;61.77
54194;BME280;40102;50.906;6.972;2022-10-16T11:44:38;101026.25;;;17.82;60.80
54194;BME280;40102;50.906;6.972;2022-10-16T11:47:23;101024.16;;;17.74;61.64
54194;BME280;40102;50.906;6.972;2022-10-16T11:49:53;101012.22;;;17.77;62.10
54194;BME280;40102;50.906;6.972;2022-10-16T11:52:31;101022.44;;;17.85;61.10
54194;BME280;40102;50.906;6.972;2022-10-16T11:57:44;101014.91;;;17.88;60.96
54194;BME280;40102;50.906;6.972;2022-10-16T12:01:13;101036.44;;;17.90;61.01
54194;BME280;40102;50.906;6.972;2022-10-16T12:03:25;101021.56;;;17.84;59.79
54194;BME280;40102;50.906;6.972;2022-10-16T12:09:00;101036.19;;;17.93;59.91
54194;BME280;40102;50.906;6.972;2022-10-16T12:13:52;101016.13;;;17.95;60.97
54194;BME280;40102;50.906;6.972;2022-10-16T12:16:28;101027.56;;;17.99;60.72
54194;BME280;40102;50.906;6.972;2022-10-16T12:19:24;101026.09;;;17.95;60.19
54194;BME280;40102;50.906;6.972;2022-10-16T12:21:50;101021.69;;;17.83;59.94
54194;BME280;40102;50.906;6.972;2022-10-16T12:24:31;101021.81;;;17.81;59.97
54194;BME280;40102;50.906;6.972;2022-10-16T12:26:57;101021.31;;;17.76;60.46
54194;BME280;40102;50.906;6.972;2022-10-16T12:29:41;101022.81;;;17.80;60.51
54194;BME280;40102;50.906;6.972;2022-10-16T12:32:26;101020.34;;;17.77;61.10
54194;BME280;40102;50.906;6.972;2022-10-16T12:34:53;101008.66;;;17.76;60.91
54194;BME280;40102;50.906;6.972;2022-10-16T12:37:28;100991.69;;;17.86;62.64
54194;BME280;40102;50.906;6.972;2022-10-16T12:39:56;100992.25;;;18.00;61.61
54194;BME280;40102;50.906;6.972;2022-10-16T12:44:53;100993.94;;;18.56;63.61
54194;BME280;40102;50.906;6.972;2022-10-16T12:49:54;100996.81;;;18.96;60.18
54194;BME280;40102;50.906;6.972;2022-10-16T12:52:29;100982.75;;;19.02;59.47
54194;BME280;40102;50.906;6.972;2022-10-16T12:55:00;100995.16;;;19.04;59.42
54194;BME280;40102;50.906;6.972;2022-10-16T13:00:33;101012.88;;;18.88;60.03
54194;BME280;40102;50.906;6.972;2022-10-16T13:03:27;101012.56;;;18.81;60.70
54194;BME280;40102;50.906;6.972;2022-10-16T13:14:16;100997.47;;;18.67;62.92
54194;BME280;40102;50.906;6.972;2022-10-16T13:16:52;100997.75;;;18.64;61.14
54194;BME280;40102;50.906;6.972;2022-10-16T13:19:37;100989.28;;;18.47;60.30
54194;BME280;40102;50.906;6.972;2022-10-16T13:22:45;101005.66;;;18.45;62.98
54194;BME280;40102;50.906;6.972;2022-10-16T13:25:27;101007.03;;;18.39;64.34
54194;BME280;40102;50.906;6.972;2022-10-16T13:27:56;100999.03;;;18.38;63.01
54194;BME280;40102;50.906;6.972;2022-10-16T13:30:31;101013.44;;;18.38;63.39
54194;BME280;40102;50.906;6.972;2022-10-16T13:33:05;101006.91;;;18.41;62.82
54194;BME280;40102;50.906;6.972;2022-10-16T13:35:34;101007.50;;;18.44;63.66
54194;BME280;40102;50.906;6.972;2022-10-16T13:40:29;101016.75;;;18.42;63.92
54194;BME280;40102;50.906;6.972;2022-10-16T13:42:54;101023.03;;;18.42;63.26
54194;BME280;40102;50.906;6.972;2022-10-16T13:45:22;101013.19;;;18.41;63.45
54194;BME280;40102;50.906;6.972;2022-10-16T13:47:48;101018.59;;;18.41;63.60
54194;BME280;40102;50.906;6.972;2022-10-16T13:50:18;101023.63;;;18.46;63.42
54194;BME280;40102;50.906;6.972;2022-10-16T13:52:43;101010.88;;;18.37;66.13
54194;BME280;40102;50.906;6.972;2022-10-16T13:55:13;101002.28;;;18.32;65.87
54194;BME280;40102;50.906;6.972;2022-10-16T13:57:39;101009.78;;;18.28;65.52
54194;BME280;40102;50.906;6.972;2022-10-16T14:00:26;101008.66;;;18.31;63.43
54194;BME280;40102;50.906;6.972;2022-10-16T14:03:11;101007.56;;;18.33;62.31
54194;BME280;40102;50.906;6.972;2022-10-16T14:05:50;100997.44;;;18.35;62.29
54194;BME280;40102;50.906;6.972;2022-10-16T14:08:16;101007.03;;;18.39;62.84
54194;BME280;40102;50.906;6.972;2022-10-16T14:10:42;101013.69;;;18.35;61.88